createdAt,value
2022-10-18T00:00:48.364Z,12.70
2022-10-18T00:03:15.698Z,12.50
2022-10-18T00:05:42.343Z,12.20
2022-10-18T00:08:08.980Z,14.07
2022-10-18T00:10:35.606Z,12.73
2022-10-18T00:13:02.307Z,13.93
2022-10-18T00:15:28.949Z,12.67
2022-10-18T00:17:55.581Z,12.97
2022-10-18T00:20:22.805Z,12.40
2022-10-18T00:22:49.405Z,13.80
2022-10-18T00:25:16.108Z,12.93
2022-10-18T00:27:42.703Z,14.13
2022-10-18T00:30:10.141Z,13.77
2022-10-18T00:32:37.766Z,13.73
2022-10-18T00:35:05.444Z,13.00
2022-10-18T00:37:33.326Z,13.70
2022-10-18T00:40:00.347Z,13.67
2022-10-18T00:42:31.259Z,11.97
2022-10-18T00:45:18.130Z,13.03
2022-10-18T00:47:49.185Z,12.33
2022-10-18T00:50:16.280Z,13.47
2022-10-18T00:52:46.598Z,12.90
2022-10-18T00:55:13.396Z,12.50
2022-10-18T00:57:42.646Z,12.90
2022-10-18T01:00:10.416Z,12.13
2022-10-18T01:02:37.806Z,12.83
2022-10-18T01:05:05.232Z,13.67
2022-10-18T01:07:48.995Z,13.10
2022-10-18T01:10:25.816Z,13.00
2022-10-18T01:13:01.911Z,11.70
2022-10-18T01:15:31.671Z,11.23
2022-10-18T01:18:09.112Z,10.10
2022-10-18T01:20:59.198Z,8.93
2022-10-18T01:23:42.319Z,9.37
2022-10-18T01:26:20.266Z,9.23
2022-10-18T01:28:57.812Z,9.57
2022-10-18T01:31:30.749Z,10.73
2022-10-18T01:33:59.705Z,9.83
2022-10-18T01:36:30.252Z,10.13
2022-10-18T01:39:00.682Z,9.57
2022-10-18T01:41:28.562Z,9.60
2022-10-18T01:43:58.840Z,10.80
2022-10-18T01:46:27.585Z,10.70
2022-10-18T01:48:54.998Z,10.77
2022-10-18T01:51:24.865Z,10.83
2022-10-18T01:53:51.589Z,11.27
2022-10-18T01:56:24.739Z,11.33
2022-10-18T01:59:11.380Z,11.10
2022-10-18T02:01:47.082Z,11.60
2022-10-18T02:04:22.855Z,11.97
2022-10-18T02:06:54.487Z,11.10
2022-10-18T02:09:29.146Z,12.73
2022-10-18T02:11:57.194Z,11.43
2022-10-18T02:14:26.134Z,13.43
2022-10-18T02:16:56.554Z,11.47
2022-10-18T02:19:28.171Z,11.67
2022-10-18T02:21:57.066Z,12.80
2022-10-18T02:24:26.934Z,11.67
2022-10-18T02:26:53.576Z,13.00
2022-10-18T02:29:20.200Z,13.37
2022-10-18T02:31:49.707Z,11.83
2022-10-18T02:34:21.967Z,12.73
2022-10-18T02:36:52.607Z,11.73
2022-10-18T02:39:22.713Z,12.83
2022-10-18T02:41:49.759Z,12.63
2022-10-18T02:44:16.347Z,12.77
2022-10-18T02:46:43.183Z,12.20
2022-10-18T02:49:10.102Z,11.87
2022-10-18T02:51:37.333Z,13.53
2022-10-18T02:54:04.212Z,14.07
2022-10-18T02:56:30.794Z,12.10
2022-10-18T02:58:57.378Z,12.47
2022-10-18T03:01:23.958Z,12.17
2022-10-18T03:03:50.783Z,12.30
2022-10-18T03:06:17.423Z,12.67
2022-10-18T03:08:44.708Z,11.93
2022-10-18T03:11:11.297Z,13.10
2022-10-18T03:13:37.848Z,11.80
2022-10-18T03:16:04.891Z,11.57
2022-10-18T03:18:31.467Z,12.27
2022-10-18T03:20:58.194Z,12.40
2022-10-18T03:23:24.822Z,13.53
2022-10-18T03:25:52.025Z,13.53
2022-10-18T03:28:18.635Z,12.67
2022-10-18T03:30:45.222Z,12.67
2022-10-18T03:33:11.807Z,12.60
2022-10-18T03:35:38.371Z,13.10
2022-10-18T03:38:04.926Z,12.40
2022-10-18T03:43:03.794Z,13.00
2022-10-18T03:45:31.433Z,13.90
2022-10-18T03:47:58.414Z,12.70
2022-10-18T03:50:27.884Z,12.40
2022-10-18T03:52:54.921Z,12.50
2022-10-18T03:55:21.561Z,12.60
2022-10-18T03:57:48.432Z,12.73
2022-10-18T04:00:16.014Z,13.17
2022-10-18T04:02:42.566Z,13.30
2022-10-18T04:05:09.633Z,11.87
2022-10-18T04:10:04.257Z,12.77
2022-10-18T04:12:30.985Z,12.67
2022-10-18T04:14:57.665Z,12.97
2022-10-18T04:17:24.940Z,12.87
2022-10-18T04:19:51.484Z,12.70
2022-10-18T04:22:18.031Z,11.93
2022-10-18T04:24:44.598Z,12.80
2022-10-18T04:27:11.175Z,12.17
2022-10-18T04:29:37.765Z,12.60
2022-10-18T04:32:04.685Z,12.77
2022-10-18T04:34:31.953Z,11.57
2022-10-18T04:36:58.535Z,11.53
2022-10-18T04:39:25.211Z,12.70
2022-10-18T04:41:51.790Z,12.33
2022-10-18T04:44:18.315Z,12.10
2022-10-18T04:46:48.030Z,12.47
2022-10-18T04:49:14.616Z,12.30
2022-10-18T04:51:41.820Z,11.20
2022-10-18T04:54:08.394Z,11.57
2022-10-18T04:56:34.972Z,12.17
2022-10-18T04:59:03.188Z,11.93
2022-10-18T05:01:30.184Z,10.03
2022-10-18T05:03:56.818Z,11.60
2022-10-18T05:06:23.711Z,11.37
2022-10-18T05:08:51.006Z,10.87
2022-10-18T05:11:17.659Z,9.90
2022-10-18T05:13:46.093Z,10.10
2022-10-18T05:16:15.641Z,9.87
2022-10-18T05:18:42.742Z,11.07
2022-10-18T05:21:09.435Z,10.97
2022-10-18T05:23:36.085Z,10.03
2022-10-18T05:26:03.981Z,10.73
2022-10-18T05:28:46.226Z,10.33
2022-10-18T05:31:12.878Z,10.97
2022-10-18T05:33:39.534Z,11.63
2022-10-18T05:36:06.824Z,12.27
2022-10-18T05:38:33.529Z,10.13
2022-10-18T05:41:03.253Z,11.63
2022-10-18T05:43:30.465Z,12.03
2022-10-18T05:45:57.214Z,12.13
2022-10-18T05:48:24.069Z,12.30
2022-10-18T05:50:50.793Z,11.93
2022-10-18T05:53:36.777Z,12.33
2022-10-18T05:56:04.901Z,12.03
2022-10-18T05:58:32.166Z,11.60
2022-10-18T06:00:59.724Z,11.73
2022-10-18T06:03:27.144Z,12.67
2022-10-18T06:05:58.667Z,11.93
2022-10-18T06:08:25.315Z,12.47
2022-10-18T06:10:52.241Z,13.57
2022-10-18T06:13:18.971Z,13.27
2022-10-18T06:15:46.170Z,12.17
2022-10-18T06:18:12.837Z,13.27
2022-10-18T06:20:39.376Z,13.53
2022-10-18T06:23:06.776Z,13.73
2022-10-18T06:25:33.336Z,12.17
2022-10-18T06:27:59.873Z,13.53
2022-10-18T06:30:26.617Z,14.17
2022-10-18T06:32:53.966Z,13.77
2022-10-18T06:35:20.536Z,13.50
2022-10-18T06:37:47.086Z,13.53
2022-10-18T06:40:13.677Z,14.13
2022-10-18T06:42:40.265Z,13.33
2022-10-18T06:45:08.208Z,13.07
2022-10-18T06:47:34.778Z,13.40
2022-10-18T06:50:02.044Z,13.80
2022-10-18T06:52:28.769Z,14.37
2022-10-18T06:54:55.500Z,12.60
2022-10-18T06:57:22.108Z,12.90
2022-10-18T06:59:50.505Z,14.10
2022-10-18T07:02:17.479Z,13.43
2022-10-18T07:04:44.134Z,14.20
2022-10-18T07:07:11.416Z,13.77
2022-10-18T07:09:38.126Z,16.47
2022-10-18T07:12:05.002Z,14.77
2022-10-18T07:14:34.998Z,15.17
2022-10-18T07:17:01.737Z,14.83
2022-10-18T07:19:28.319Z,14.20
2022-10-18T07:21:54.869Z,15.13
2022-10-18T07:24:22.086Z,13.93
2022-10-18T07:26:48.658Z,15.23
2022-10-18T07:29:15.330Z,15.67
2022-10-18T07:31:41.900Z,13.60
2022-10-18T07:34:11.971Z,13.53
2022-10-18T07:36:38.651Z,13.10
2022-10-18T07:39:05.711Z,13.10
2022-10-18T07:41:33.480Z,13.60
2022-10-18T07:44:00.829Z,13.33
2022-10-18T07:46:27.368Z,12.67
2022-10-18T07:48:54.845Z,10.53
2022-10-18T07:51:21.724Z,12.07
2022-10-18T07:53:48.602Z,10.83
2022-10-18T07:56:17.393Z,12.10
2022-10-18T07:58:45.502Z,12.93
2022-10-18T08:01:13.836Z,13.30
2022-10-18T08:03:41.893Z,14.43
2022-10-18T08:06:10.199Z,15.33
2022-10-18T08:08:38.133Z,13.73
2022-10-18T08:11:06.911Z,10.97
2022-10-18T08:13:34.355Z,11.67
2022-10-18T08:16:03.234Z,12.27
2022-10-18T08:18:31.020Z,11.97
2022-10-18T08:21:00.133Z,11.80
2022-10-18T08:23:26.849Z,11.87
2022-10-18T08:25:53.715Z,12.63
2022-10-18T08:28:20.336Z,12.23
2022-10-18T08:30:46.969Z,13.40
2022-10-18T08:33:14.275Z,12.90
2022-10-18T08:35:40.826Z,12.60
2022-10-18T08:38:15.131Z,10.63
2022-10-18T08:40:44.816Z,10.67
2022-10-18T08:43:22.292Z,11.13
2022-10-18T08:45:50.646Z,10.60
2022-10-18T08:48:23.091Z,9.83
2022-10-18T08:50:51.461Z,11.53
2022-10-18T08:53:24.068Z,11.80
2022-10-18T08:55:55.035Z,10.87
2022-10-18T08:58:23.380Z,12.17
2022-10-18T09:01:00.982Z,11.20
2022-10-18T09:03:48.318Z,10.90
2022-10-18T09:06:23.568Z,9.67
2022-10-18T09:09:19.569Z,10.30
2022-10-18T09:11:58.138Z,10.53
2022-10-18T09:14:57.482Z,9.50
2022-10-18T09:17:31.101Z,8.83
2022-10-18T09:20:09.667Z,8.97
2022-10-18T09:22:48.115Z,8.73
2022-10-18T09:25:19.234Z,9.57
2022-10-18T09:27:55.591Z,8.93
2022-10-18T09:30:45.199Z,9.73
2022-10-18T09:33:33.880Z,9.50
2022-10-18T09:36:03.232Z,10.13
2022-10-18T09:38:34.172Z,10.10
2022-10-18T09:41:07.733Z,9.70
2022-10-18T09:43:45.562Z,10.70
2022-10-18T09:46:15.022Z,9.43
2022-10-18T09:48:46.419Z,11.33
2022-10-18T09:51:20.810Z,11.43
2022-10-18T09:54:03.174Z,9.83
2022-10-18T09:56:35.599Z,10.87
2022-10-18T09:59:16.525Z,10.63
2022-10-18T10:01:43.251Z,11.47
2022-10-18T10:04:09.832Z,10.67
2022-10-18T10:06:38.280Z,11.20
2022-10-18T10:09:07.476Z,10.10
2022-10-18T10:11:39.571Z,10.57
2022-10-18T10:14:13.090Z,10.60
2022-10-18T10:16:48.562Z,9.90
2022-10-18T10:19:26.109Z,10.27
2022-10-18T10:21:58.610Z,12.67
2022-10-18T10:24:32.607Z,10.83
2022-10-18T10:27:01.926Z,10.43
2022-10-18T10:29:55.773Z,9.67
2022-10-18T10:32:24.648Z,9.50
2022-10-18T10:34:51.651Z,9.53
2022-10-18T10:37:28.108Z,9.90
2022-10-18T10:40:20.324Z,9.87
2022-10-18T10:43:04.260Z,10.17
2022-10-18T10:45:54.875Z,9.90
2022-10-18T10:48:22.033Z,10.40
2022-10-18T10:50:59.552Z,11.03
2022-10-18T10:53:41.556Z,10.30
2022-10-18T10:56:18.168Z,11.20
2022-10-18T10:58:45.139Z,10.70
2022-10-18T11:01:19.547Z,11.87
2022-10-18T11:03:48.231Z,11.17
2022-10-18T11:06:31.982Z,11.07
2022-10-18T11:09:03.245Z,11.83
2022-10-18T11:11:35.921Z,11.40
2022-10-18T11:14:26.304Z,10.57
2022-10-18T11:17:04.241Z,9.80
2022-10-18T11:19:39.222Z,10.87
2022-10-18T11:22:12.932Z,10.50
2022-10-18T11:24:40.288Z,11.20
2022-10-18T11:27:13.199Z,10.53
2022-10-18T11:29:59.029Z,11.30
2022-10-18T11:32:33.989Z,11.17
2022-10-18T11:35:21.816Z,11.57
2022-10-18T11:37:59.369Z,11.13
2022-10-18T11:40:42.270Z,11.37
2022-10-18T11:43:16.573Z,12.07
2022-10-18T11:45:49.093Z,12.70
2022-10-18T11:48:36.937Z,11.83
2022-10-18T11:51:10.708Z,12.27
2022-10-18T11:53:45.284Z,12.13
2022-10-18T11:56:20.946Z,11.87
2022-10-18T11:59:05.416Z,11.27
2022-10-18T12:01:39.239Z,11.30
2022-10-18T12:04:11.024Z,12.97
2022-10-18T12:06:39.958Z,13.93
2022-10-18T12:09:16.899Z,16.20
2022-10-18T12:11:54.875Z,11.93
2022-10-18T12:14:26.787Z,12.57
2022-10-18T12:17:19.039Z,12.07
2022-10-18T12:19:46.103Z,11.63
2022-10-18T12:22:18.127Z,10.97
2022-10-18T12:24:44.904Z,11.50
2022-10-18T12:27:14.747Z,10.97
2022-10-18T12:29:50.523Z,11.07
2022-10-18T12:32:21.987Z,11.17
2022-10-18T12:34:52.692Z,11.40
2022-10-18T12:37:50.428Z,11.20
2022-10-18T12:40:21.615Z,11.70
2022-10-18T12:42:51.665Z,11.67
2022-10-18T12:45:26.043Z,11.23
2022-10-18T12:47:54.173Z,9.83
2022-10-18T12:50:33.277Z,10.97
2022-10-18T12:53:05.887Z,10.73
2022-10-18T12:55:36.207Z,10.93
2022-10-18T12:58:26.726Z,12.03
2022-10-18T13:01:01.830Z,10.43
2022-10-18T13:03:49.585Z,11.23
2022-10-18T13:06:16.362Z,12.17
2022-10-18T13:08:45.215Z,10.83
2022-10-18T13:11:35.016Z,9.67
2022-10-18T13:14:59.081Z,10.83
2022-10-18T13:17:38.596Z,10.07
2022-10-18T13:20:26.125Z,11.77
2022-10-18T13:23:05.465Z,12.73
2022-10-18T13:25:46.483Z,10.73
2022-10-18T13:28:22.453Z,11.20
2022-10-18T13:30:57.347Z,10.80
2022-10-18T13:33:33.403Z,10.77
2022-10-18T13:36:03.335Z,10.77
2022-10-18T13:38:57.966Z,10.30
2022-10-18T13:41:27.559Z,10.40
2022-10-18T13:44:24.169Z,10.23
2022-10-18T13:47:35.928Z,10.37
2022-10-18T13:50:35.863Z,10.00
2022-10-18T13:53:34.795Z,10.00
2022-10-18T13:56:34.310Z,9.47
2022-10-18T13:59:17.593Z,8.50
2022-10-18T14:02:00.678Z,8.10
2022-10-18T14:05:10.605Z,8.03
2022-10-18T14:07:44.212Z,7.77
2022-10-18T14:10:21.189Z,7.97
2022-10-18T14:12:53.929Z,8.70
2022-10-18T14:15:24.236Z,8.67
2022-10-18T14:17:56.017Z,8.47
2022-10-18T14:20:29.353Z,8.90
2022-10-18T14:23:03.794Z,9.00
2022-10-18T14:25:34.763Z,9.37
2022-10-18T14:28:10.056Z,10.30
2022-10-18T14:30:52.270Z,9.97
2022-10-18T14:33:30.269Z,9.40
2022-10-18T14:36:03.418Z,9.60
2022-10-18T14:38:31.248Z,8.70
2022-10-18T14:41:06.847Z,9.37
2022-10-18T14:43:33.508Z,10.00
2022-10-18T14:46:09.924Z,9.57
2022-10-18T14:48:36.549Z,8.93
2022-10-18T14:51:06.840Z,10.17
2022-10-18T14:53:38.777Z,10.17
2022-10-18T14:56:20.504Z,10.13
2022-10-18T14:58:49.823Z,10.97
2022-10-18T15:01:18.918Z,10.50
2022-10-18T15:03:46.636Z,10.43
2022-10-18T15:06:17.631Z,12.03
2022-10-18T15:08:49.957Z,11.87
2022-10-18T15:11:16.975Z,11.60
2022-10-18T15:13:48.960Z,11.40
2022-10-18T15:16:17.225Z,11.57
2022-10-18T15:18:43.982Z,12.33
2022-10-18T15:21:21.609Z,11.80
2022-10-18T15:23:49.558Z,11.60
2022-10-18T15:26:22.330Z,11.93
2022-10-18T15:28:53.338Z,13.33
2022-10-18T15:31:27.546Z,12.67
2022-10-18T15:34:08.575Z,11.57
2022-10-18T15:36:36.091Z,12.80
2022-10-18T15:39:13.506Z,12.37
2022-10-18T15:41:44.435Z,13.37
2022-10-18T15:44:24.004Z,14.40
2022-10-18T15:46:52.775Z,14.07
2022-10-18T15:49:47.549Z,14.73
2022-10-18T15:52:38.763Z,14.37
2022-10-18T15:55:49.086Z,15.73
2022-10-18T15:58:21.457Z,17.60
2022-10-18T16:00:49.313Z,15.77
2022-10-18T16:03:18.076Z,13.10
2022-10-18T16:05:45.615Z,13.43
2022-10-18T16:08:24.243Z,14.90
2022-10-18T16:10:52.051Z,14.23
2022-10-18T16:13:19.028Z,15.17
2022-10-18T16:15:46.327Z,15.50
2022-10-18T16:18:17.588Z,16.73
2022-10-18T16:20:44.923Z,15.63
2022-10-18T16:23:17.751Z,16.40
2022-10-18T16:25:44.859Z,16.23
2022-10-18T16:28:15.751Z,18.27
2022-10-18T16:30:44.690Z,17.50
2022-10-18T16:33:11.495Z,17.60
2022-10-18T16:35:38.761Z,17.57
2022-10-18T16:38:06.287Z,16.17
2022-10-18T16:40:34.592Z,17.93
2022-10-18T16:43:03.121Z,16.70
2022-10-18T16:45:30.955Z,16.13
2022-10-18T16:47:57.722Z,16.70
2022-10-18T16:50:24.592Z,19.57
2022-10-18T16:52:54.700Z,18.80
2022-10-18T16:55:24.356Z,17.43
2022-10-18T16:57:51.445Z,21.10
2022-10-18T17:00:20.693Z,17.57
2022-10-18T17:02:51.708Z,15.47
2022-10-18T17:05:19.459Z,15.30
2022-10-18T17:07:46.946Z,16.97
2022-10-18T17:10:14.925Z,15.47
2022-10-18T17:12:42.139Z,16.80
2022-10-18T17:15:09.657Z,17.03
2022-10-18T17:17:37.681Z,16.90
2022-10-18T17:20:06.886Z,15.50
2022-10-18T17:22:34.076Z,17.70
2022-10-18T17:25:00.890Z,19.73
2022-10-18T17:27:27.776Z,14.23
2022-10-18T17:29:54.375Z,16.07
2022-10-18T17:32:20.958Z,16.57
2022-10-18T17:34:47.577Z,17.23
2022-10-18T17:37:15.035Z,17.20
2022-10-18T17:39:43.137Z,17.43
2022-10-18T17:42:09.984Z,18.40
2022-10-18T17:44:36.733Z,18.13
2022-10-18T17:47:03.497Z,16.17
2022-10-18T17:49:30.285Z,16.30
2022-10-18T17:51:56.854Z,16.30
2022-10-18T17:54:24.130Z,17.37
2022-10-18T17:56:53.816Z,19.33
2022-10-18T17:59:21.491Z,18.87
2022-10-18T18:01:48.252Z,28.40
2022-10-18T18:04:16.354Z,21.40
2022-10-18T18:06:44.725Z,19.80
2022-10-18T18:09:14.775Z,20.67
2022-10-18T18:11:44.279Z,22.20
2022-10-18T18:14:12.572Z,21.80
2022-10-18T18:16:40.702Z,22.83
2022-10-18T18:19:09.906Z,23.93
2022-10-18T18:21:37.659Z,22.67
2022-10-18T18:24:04.741Z,21.73
2022-10-18T18:26:31.978Z,22.97
2022-10-18T18:28:59.750Z,24.83
2022-10-18T18:31:30.705Z,26.03
2022-10-18T18:34:01.301Z,23.40
2022-10-18T18:36:28.571Z,24.20
2022-10-18T18:38:57.079Z,22.67
2022-10-18T18:41:26.018Z,24.00
2022-10-18T18:43:54.594Z,22.20
2022-10-18T18:46:22.748Z,23.77
2022-10-18T18:48:49.421Z,21.63
2022-10-18T18:51:17.882Z,18.90
2022-10-18T18:53:45.982Z,18.10
2022-10-18T18:56:14.483Z,16.40
2022-10-18T18:58:43.510Z,15.43
2022-10-18T19:01:11.742Z,14.13
2022-10-18T19:03:39.969Z,13.10
2022-10-18T19:06:08.360Z,13.47
2022-10-18T19:08:36.276Z,12.50
2022-10-18T19:11:08.036Z,12.37
2022-10-18T19:13:36.249Z,10.27
2022-10-18T19:16:24.647Z,10.33
2022-10-18T19:18:54.558Z,10.17
2022-10-18T19:21:21.609Z,10.57
2022-10-18T19:23:49.432Z,8.57
2022-10-18T19:26:28.191Z,8.70
2022-10-18T19:28:55.563Z,8.90
2022-10-18T19:31:22.976Z,9.73
2022-10-18T19:33:59.438Z,8.67
2022-10-18T19:36:28.052Z,9.87
2022-10-18T19:38:54.722Z,8.33
2022-10-18T19:41:22.949Z,9.77
2022-10-18T19:43:49.579Z,9.60
2022-10-18T19:46:16.223Z,8.00
2022-10-18T19:48:43.120Z,9.13
2022-10-18T19:51:10.382Z,8.70
2022-10-18T19:53:38.242Z,8.60
2022-10-18T19:56:06.842Z,8.00
2022-10-18T19:58:33.853Z,8.17
2022-10-18T20:01:01.645Z,8.97
2022-10-18T20:03:29.830Z,9.00
2022-10-18T20:05:57.809Z,8.17
2022-10-18T20:08:25.595Z,9.23
2022-10-18T20:10:53.048Z,8.73
2022-10-18T20:13:21.442Z,7.93
2022-10-18T20:15:48.948Z,9.23
2022-10-18T20:18:16.132Z,7.70
2022-10-18T20:20:47.251Z,6.77
2022-10-18T20:23:15.365Z,7.57
2022-10-18T20:25:42.541Z,7.40
2022-10-18T20:28:10.214Z,6.97
2022-10-18T20:30:37.122Z,7.27
2022-10-18T20:33:04.440Z,6.93
2022-10-18T20:35:31.709Z,6.40
2022-10-18T20:37:58.279Z,6.80
2022-10-18T20:40:25.604Z,6.07
2022-10-18T20:42:52.749Z,6.67
2022-10-18T20:45:20.261Z,6.93
2022-10-18T20:47:46.974Z,6.00
2022-10-18T20:50:13.918Z,6.90
2022-10-18T20:52:40.469Z,6.57
2022-10-18T20:55:07.608Z,6.20
2022-10-18T20:57:36.527Z,6.43
2022-10-18T21:00:05.483Z,6.50
2022-10-18T21:02:33.244Z,6.23
2022-10-18T21:04:59.954Z,5.40
2022-10-18T21:07:26.555Z,6.33
2022-10-18T21:09:53.172Z,5.77
2022-10-18T21:12:20.088Z,6.60
2022-10-18T21:14:46.806Z,5.73
2022-10-18T21:17:15.662Z,6.53
2022-10-18T21:19:42.971Z,5.77
2022-10-18T21:22:09.965Z,6.30
2022-10-18T21:24:36.818Z,5.63
2022-10-18T21:27:03.776Z,4.90
2022-10-18T21:29:30.638Z,5.03
2022-10-18T21:31:58.929Z,5.90
2022-10-18T21:34:25.941Z,6.17
2022-10-18T21:36:53.175Z,5.57
2022-10-18T21:41:53.873Z,5.57
2022-10-18T21:44:20.668Z,4.83
2022-10-18T21:46:47.371Z,4.23
2022-10-18T21:49:14.859Z,4.83
2022-10-18T21:51:41.892Z,4.40
2022-10-18T21:54:12.451Z,4.60
2022-10-18T21:56:40.140Z,4.90
2022-10-18T21:59:07.497Z,5.37
2022-10-18T22:01:35.882Z,5.57
2022-10-18T22:04:04.240Z,4.80
2022-10-18T22:06:33.142Z,5.53
2022-10-18T22:09:04.687Z,5.10
2022-10-18T22:11:33.887Z,4.53
2022-10-18T22:14:00.766Z,4.83
2022-10-18T22:16:28.147Z,5.37
2022-10-18T22:18:58.723Z,4.20
2022-10-18T22:21:25.763Z,3.93
2022-10-18T22:23:54.034Z,4.10
2022-10-18T22:26:22.427Z,4.47
2022-10-18T22:28:55.439Z,4.37
2022-10-18T22:31:24.260Z,3.40
2022-10-18T22:33:53.089Z,4.20
2022-10-18T22:36:19.773Z,4.10
2022-10-18T22:38:47.620Z,3.53
2022-10-18T22:41:14.426Z,4.07
2022-10-18T22:43:41.071Z,4.27
2022-10-18T22:46:10.971Z,4.23
2022-10-18T22:48:38.177Z,3.60
2022-10-18T22:51:05.292Z,3.37
2022-10-18T22:53:33.084Z,3.03
2022-10-18T22:55:59.624Z,4.30
2022-10-18T22:58:26.496Z,3.30
2022-10-18T23:01:00.379Z,3.53
2022-10-18T23:03:27.753Z,3.23
2022-10-18T23:05:54.407Z,2.80
2022-10-18T23:08:21.661Z,2.83
2022-10-18T23:10:51.713Z,3.53
2022-10-18T23:13:18.384Z,2.93
2022-10-18T23:15:44.998Z,3.20
2022-10-18T23:18:11.521Z,3.27
2022-10-18T23:20:38.770Z,2.70
2022-10-18T23:23:05.453Z,3.17
2022-10-18T23:25:35.420Z,3.40
2022-10-18T23:28:02.076Z,3.63
2022-10-18T23:30:28.680Z,3.27
2022-10-18T23:32:55.699Z,2.83
2022-10-18T23:35:22.883Z,4.03
2022-10-18T23:37:51.274Z,3.50
2022-10-18T23:40:18.091Z,3.70
2022-10-18T23:42:44.997Z,3.53
2022-10-18T23:45:11.596Z,3.20
2022-10-18T23:47:38.163Z,3.70
2022-10-18T23:50:05.675Z,3.57
2022-10-18T23:52:32.266Z,3.20
2022-10-18T23:54:59.524Z,3.40
2022-10-18T23:57:26.070Z,3.43
2022-10-18T23:59:52.664Z,3.40
